createdAt,value
2023-03-15T00:02:11.485Z,69.37
2023-03-15T00:04:49.993Z,69.40
2023-03-15T00:07:27.822Z,70.87
2023-03-15T00:10:03.436Z,68.33
2023-03-15T00:12:40.445Z,68.30
2023-03-15T00:15:21.392Z,68.07
2023-03-15T00:17:57.396Z,71.70
2023-03-15T00:20:36.792Z,67.60
2023-03-15T00:23:13.461Z,71.73
2023-03-15T00:25:52.314Z,68.83
2023-03-15T00:28:29.950Z,68.50
2023-03-15T00:31:14.675Z,68.03
2023-03-15T00:33:55.446Z,68.60
2023-03-15T00:36:37.085Z,69.30
2023-03-15T00:39:16.709Z,71.97
2023-03-15T00:41:56.049Z,68.20
2023-03-15T00:44:34.577Z,69.97
2023-03-15T00:47:16.900Z,70.70
2023-03-15T00:49:56.025Z,71.67
2023-03-15T00:52:44.453Z,73.33
2023-03-15T00:55:25.412Z,71.77
2023-03-15T00:58:03.831Z,72.07
2023-03-15T01:01:01.450Z,72.23
2023-03-15T01:03:41.202Z,70.47
2023-03-15T01:06:26.939Z,72.63
2023-03-15T01:09:10.437Z,72.53
2023-03-15T01:11:59.873Z,73.23
2023-03-15T01:14:40.173Z,72.07
2023-03-15T01:17:17.189Z,73.93
2023-03-15T01:19:57.826Z,72.17
2023-03-15T01:22:39.313Z,74.80
2023-03-15T01:25:31.291Z,71.77
2023-03-15T01:28:12.976Z,74.10
2023-03-15T01:31:00.760Z,73.33
2023-03-15T01:33:43.529Z,74.63
2023-03-15T01:36:22.131Z,74.13
2023-03-15T01:39:02.008Z,76.33
2023-03-15T01:41:55.182Z,77.63
2023-03-15T01:44:57.522Z,74.93
2023-03-15T01:47:38.685Z,72.53
2023-03-15T01:50:31.108Z,72.07
2023-03-15T01:53:13.912Z,73.70
2023-03-15T01:55:56.042Z,72.03
2023-03-15T01:58:58.566Z,73.17
2023-03-15T02:01:40.157Z,74.37
2023-03-15T02:04:21.424Z,74.03
2023-03-15T02:07:03.945Z,72.27
2023-03-15T02:09:51.754Z,73.70
2023-03-15T02:12:35.898Z,74.53
2023-03-15T02:15:15.748Z,77.83
2023-03-15T02:17:56.092Z,74.53
2023-03-15T02:20:47.218Z,74.93
2023-03-15T02:23:25.557Z,74.67
2023-03-15T02:26:14.510Z,72.27
2023-03-15T02:28:55.878Z,75.33
2023-03-15T02:31:39.857Z,78.60
2023-03-15T02:34:21.987Z,79.57
2023-03-15T02:37:05.471Z,77.47
2023-03-15T02:39:44.975Z,77.60
2023-03-15T02:42:23.847Z,75.90
2023-03-15T02:45:07.998Z,80.13
2023-03-15T02:47:51.143Z,75.50
2023-03-15T02:50:36.820Z,79.03
2023-03-15T02:53:17.200Z,75.07
2023-03-15T02:55:54.097Z,80.83
2023-03-15T02:58:31.375Z,83.17
2023-03-15T03:01:11.917Z,81.17
2023-03-15T03:03:48.674Z,77.40
2023-03-15T03:06:32.846Z,74.33
2023-03-15T03:09:10.751Z,68.83
2023-03-15T03:11:47.706Z,74.00
2023-03-15T03:14:25.903Z,74.80
2023-03-15T03:17:05.800Z,73.13
2023-03-15T03:19:42.313Z,73.80
2023-03-15T03:22:25.752Z,75.67
2023-03-15T03:25:23.706Z,77.17
2023-03-15T03:28:00.670Z,73.50
2023-03-15T03:30:46.148Z,77.53
2023-03-15T03:33:27.305Z,73.57
2023-03-15T03:36:07.845Z,72.73
2023-03-15T03:38:47.384Z,70.17
2023-03-15T03:41:24.170Z,67.43
2023-03-15T03:44:00.447Z,70.10
2023-03-15T03:46:40.479Z,71.80
2023-03-15T03:49:20.837Z,66.87
2023-03-15T03:51:57.548Z,68.37
2023-03-15T03:54:34.580Z,66.43
2023-03-15T03:57:15.632Z,67.57
2023-03-15T03:59:53.471Z,66.30
2023-03-15T04:02:30.164Z,66.87
2023-03-15T04:05:17.506Z,65.57
2023-03-15T04:07:59.395Z,68.07
2023-03-15T04:10:39.122Z,66.60
2023-03-15T04:13:18.038Z,68.73
2023-03-15T04:15:59.646Z,66.87
2023-03-15T04:18:48.556Z,70.33
2023-03-15T04:21:33.986Z,65.20
2023-03-15T04:24:31.304Z,67.50
2023-03-15T04:27:34.905Z,66.93
2023-03-15T04:30:20.688Z,66.60
2023-03-15T04:33:12.785Z,65.57
2023-03-15T04:36:20.387Z,58.30
2023-03-15T04:39:31.735Z,55.50
2023-03-15T04:42:29.142Z,57.57
2023-03-15T04:45:24.556Z,57.67
2023-03-15T04:48:21.361Z,60.60
2023-03-15T04:51:32.950Z,59.70
2023-03-15T04:54:26.388Z,60.00
2023-03-15T04:57:41.012Z,58.57
2023-03-15T05:00:43.455Z,54.00
2023-03-15T05:03:37.282Z,51.50
2023-03-15T05:06:38.339Z,52.40
2023-03-15T05:09:40.122Z,55.10
2023-03-15T05:12:44.973Z,52.20
2023-03-15T05:15:34.961Z,52.33
2023-03-15T05:18:34.335Z,49.90
2023-03-15T05:21:23.988Z,54.43
2023-03-15T05:24:16.324Z,51.47
2023-03-15T05:27:02.596Z,52.67
2023-03-15T05:30:02.027Z,54.23
2023-03-15T05:33:06.445Z,53.53
2023-03-15T05:35:51.488Z,53.20
2023-03-15T05:38:53.515Z,55.87
2023-03-15T05:42:03.557Z,55.50
2023-03-15T05:45:04.506Z,55.60
2023-03-15T05:48:00.742Z,54.20
2023-03-15T05:51:04.700Z,53.93
2023-03-15T05:54:04.331Z,53.87
2023-03-15T05:57:11.077Z,52.90
2023-03-15T06:00:08.601Z,50.67
2023-03-15T06:02:54.440Z,52.17
2023-03-15T06:05:54.012Z,51.70
2023-03-15T06:08:41.274Z,51.17
2023-03-15T06:11:18.355Z,50.37
2023-03-15T06:13:57.349Z,55.20
2023-03-15T06:16:50.145Z,50.90
2023-03-15T06:19:41.919Z,53.37
2023-03-15T06:22:21.791Z,53.33
2023-03-15T06:25:05.271Z,52.73
2023-03-15T06:27:44.844Z,52.43
2023-03-15T06:30:22.900Z,48.10
2023-03-15T06:33:12.477Z,49.53
2023-03-15T06:35:50.997Z,52.77
2023-03-15T06:38:30.350Z,48.17
2023-03-15T06:41:16.962Z,50.17
2023-03-15T06:43:54.589Z,49.40
2023-03-15T06:46:32.783Z,46.50
2023-03-15T06:49:12.817Z,49.33
2023-03-15T06:51:52.890Z,52.63
2023-03-15T06:54:33.273Z,50.27
2023-03-15T06:57:11.308Z,49.20
2023-03-15T06:59:51.663Z,47.37
2023-03-15T07:02:28.287Z,47.90
2023-03-15T07:05:08.431Z,45.33
2023-03-15T07:07:45.235Z,47.60
2023-03-15T07:10:24.703Z,45.00
2023-03-15T07:13:09.005Z,43.33
2023-03-15T07:15:45.626Z,44.37
2023-03-15T07:18:30.722Z,40.87
2023-03-15T07:21:13.634Z,41.10
2023-03-15T07:23:53.855Z,43.53
2023-03-15T07:26:30.609Z,41.63
2023-03-15T07:29:18.344Z,41.80
2023-03-15T07:31:57.194Z,42.73
2023-03-15T07:34:33.484Z,42.57
2023-03-15T07:37:12.492Z,41.43
2023-03-15T07:39:51.013Z,41.43
2023-03-15T07:42:28.197Z,40.20
2023-03-15T07:45:11.673Z,38.00
2023-03-15T07:47:49.856Z,41.13
2023-03-15T07:50:27.685Z,41.90
2023-03-15T07:53:06.330Z,41.97
2023-03-15T07:55:52.177Z,40.53
2023-03-15T07:58:30.263Z,40.57
2023-03-15T08:01:11.585Z,37.53
2023-03-15T08:03:48.638Z,39.80
2023-03-15T08:06:29.117Z,39.97
2023-03-15T08:09:15.672Z,40.63
2023-03-15T08:11:52.444Z,43.07
2023-03-15T08:14:30.484Z,45.07
2023-03-15T08:17:07.397Z,43.57
2023-03-15T08:19:46.294Z,42.63
2023-03-15T08:22:23.662Z,43.53
2023-03-15T08:25:02.365Z,41.53
2023-03-15T08:27:38.576Z,45.10
2023-03-15T08:30:18.125Z,45.93
2023-03-15T08:32:56.233Z,44.50
2023-03-15T08:35:34.833Z,43.97
2023-03-15T08:38:11.613Z,43.63
2023-03-15T08:40:52.882Z,39.67
2023-03-15T08:43:30.575Z,40.73
2023-03-15T08:46:08.915Z,41.40
2023-03-15T08:48:46.514Z,39.33
2023-03-15T08:51:26.988Z,38.90
2023-03-15T08:54:05.665Z,38.60
2023-03-15T08:56:46.506Z,39.47
2023-03-15T08:59:32.422Z,36.17
2023-03-15T09:02:09.191Z,36.30
2023-03-15T09:04:53.509Z,36.93
2023-03-15T09:07:32.456Z,36.47
2023-03-15T09:10:11.806Z,34.23
2023-03-15T09:12:51.504Z,34.90
2023-03-15T09:15:30.662Z,37.60
2023-03-15T09:18:10.438Z,38.37
2023-03-15T09:20:48.636Z,39.33
2023-03-15T09:23:33.477Z,39.87
2023-03-15T09:26:11.027Z,39.53
2023-03-15T09:28:49.447Z,38.47
2023-03-15T09:31:30.825Z,37.83
2023-03-15T09:34:11.555Z,37.80
2023-03-15T09:36:54.892Z,38.13
2023-03-15T09:39:34.854Z,38.60
2023-03-15T09:42:23.217Z,38.23
2023-03-15T09:45:10.188Z,38.73
2023-03-15T09:48:04.772Z,39.87
2023-03-15T09:50:54.899Z,38.53
2023-03-15T09:53:37.319Z,35.70
2023-03-15T09:56:31.146Z,35.30
2023-03-15T09:59:08.968Z,36.10
2023-03-15T10:01:49.147Z,34.63
2023-03-15T10:04:36.357Z,33.60
2023-03-15T10:07:20.175Z,31.73
2023-03-15T10:10:00.463Z,30.67
2023-03-15T10:12:43.437Z,31.27
2023-03-15T10:15:48.459Z,30.60
2023-03-15T10:18:43.315Z,31.77
2023-03-15T10:21:31.535Z,32.00
2023-03-15T10:24:11.099Z,31.30
2023-03-15T10:26:49.661Z,31.50
2023-03-15T10:29:31.699Z,31.97
2023-03-15T10:32:21.285Z,32.47
2023-03-15T10:35:03.741Z,30.13
2023-03-15T10:37:40.927Z,31.20
2023-03-15T10:40:23.536Z,31.20
2023-03-15T10:43:05.868Z,31.07
2023-03-15T10:45:45.886Z,31.47
2023-03-15T10:48:23.383Z,30.13
2023-03-15T10:51:21.081Z,30.17
2023-03-15T10:54:18.179Z,30.30
2023-03-15T10:56:58.562Z,31.20
2023-03-15T10:59:36.952Z,31.43
2023-03-15T11:02:28.300Z,29.23
2023-03-15T11:05:08.655Z,30.57
2023-03-15T11:08:03.718Z,30.07
2023-03-15T11:10:42.370Z,30.00
2023-03-15T11:13:29.263Z,30.33
2023-03-15T11:16:14.387Z,30.03
2023-03-15T11:18:56.942Z,30.23
2023-03-15T11:21:44.924Z,29.33
2023-03-15T11:24:33.406Z,30.40
2023-03-15T11:27:21.091Z,31.30
2023-03-15T11:30:03.792Z,29.53
2023-03-15T11:32:52.126Z,30.43
2023-03-15T11:35:40.423Z,30.03
2023-03-15T11:38:24.903Z,32.37
2023-03-15T11:41:07.986Z,30.17
2023-03-15T11:43:55.963Z,31.27
2023-03-15T11:46:37.581Z,30.50
2023-03-15T11:49:28.082Z,30.37
2023-03-15T11:52:15.273Z,31.33
2023-03-15T11:54:57.293Z,31.10
2023-03-15T11:57:57.455Z,30.37
2023-03-15T12:00:56.275Z,32.27
2023-03-15T12:03:57.578Z,32.50
2023-03-15T12:06:47.028Z,29.93
2023-03-15T12:09:57.641Z,30.23
2023-03-15T12:12:47.911Z,31.50
2023-03-15T12:15:57.194Z,32.93
2023-03-15T12:18:48.828Z,31.23
2023-03-15T12:21:33.266Z,32.00
2023-03-15T12:24:26.953Z,30.20
2023-03-15T12:27:12.048Z,33.43
2023-03-15T12:29:55.533Z,32.03
2023-03-15T12:32:52.069Z,32.57
2023-03-15T12:35:43.145Z,30.83
2023-03-15T12:38:26.547Z,32.37
2023-03-15T12:41:06.443Z,32.20
2023-03-15T12:44:02.719Z,31.50
2023-03-15T12:47:05.632Z,33.20
2023-03-15T12:49:56.669Z,32.60
2023-03-15T12:52:56.140Z,32.23
2023-03-15T12:55:37.742Z,32.43
2023-03-15T12:58:23.330Z,33.13
2023-03-15T13:01:09.667Z,33.73
2023-03-15T13:03:48.507Z,33.00
2023-03-15T13:06:54.158Z,33.87
2023-03-15T13:09:55.279Z,33.60
2023-03-15T13:12:48.224Z,32.60
2023-03-15T13:15:29.956Z,33.90
2023-03-15T13:18:27.949Z,32.90
2023-03-15T13:21:18.632Z,33.77
2023-03-15T13:24:06.464Z,33.53
2023-03-15T13:27:03.602Z,32.47
2023-03-15T13:30:01.463Z,32.57
2023-03-15T13:32:41.151Z,32.73
2023-03-15T13:35:24.009Z,32.97
2023-03-15T13:38:13.545Z,33.50
2023-03-15T13:41:02.152Z,33.50
2023-03-15T13:43:42.173Z,34.67
2023-03-15T13:46:24.253Z,33.80
2023-03-15T13:49:21.517Z,33.43
2023-03-15T13:52:02.152Z,32.50
2023-03-15T13:54:47.226Z,34.90
2023-03-15T13:57:28.939Z,32.17
2023-03-15T14:00:13.257Z,31.97
2023-03-15T14:03:09.766Z,32.70
2023-03-15T14:05:59.077Z,32.33
2023-03-15T14:08:40.626Z,33.03
2023-03-15T14:11:28.613Z,32.73
2023-03-15T14:14:23.721Z,33.73
2023-03-15T14:17:08.919Z,32.60
2023-03-15T14:20:14.733Z,31.90
2023-03-15T14:22:54.769Z,30.90
2023-03-15T14:25:47.236Z,32.07
2023-03-15T14:28:26.470Z,32.97
2023-03-15T14:31:14.461Z,32.00
2023-03-15T14:34:02.176Z,32.00
2023-03-15T14:36:49.028Z,33.27
2023-03-15T14:39:33.277Z,34.93
2023-03-15T14:42:16.773Z,36.23
2023-03-15T14:44:55.498Z,36.90
2023-03-15T14:47:48.603Z,36.07
2023-03-15T14:50:40.356Z,37.00
2023-03-15T14:53:22.945Z,37.17
2023-03-15T14:56:04.339Z,37.47
2023-03-15T14:58:48.306Z,39.83
2023-03-15T15:01:37.349Z,37.57
2023-03-15T15:04:22.463Z,39.03
2023-03-15T15:07:01.090Z,37.23
2023-03-15T15:09:47.057Z,40.80
2023-03-15T15:12:23.759Z,39.97
2023-03-15T15:15:12.181Z,40.00
2023-03-15T15:17:55.507Z,39.10
2023-03-15T15:20:37.489Z,39.87
2023-03-15T15:23:25.680Z,41.10
2023-03-15T15:26:05.804Z,40.50
2023-03-15T15:28:46.768Z,42.20
2023-03-15T15:31:30.473Z,42.17
2023-03-15T15:34:08.300Z,41.20
2023-03-15T15:36:52.089Z,42.47
2023-03-15T15:39:33.430Z,41.27
2023-03-15T15:42:12.856Z,44.93
2023-03-15T15:44:50.011Z,46.70
2023-03-15T15:47:26.559Z,46.13
2023-03-15T15:50:09.478Z,49.67
2023-03-15T15:52:53.254Z,49.03
2023-03-15T15:55:45.237Z,51.03
2023-03-15T15:58:24.875Z,50.70
2023-03-15T16:01:10.105Z,52.43
2023-03-15T16:03:49.318Z,52.83
2023-03-15T16:06:31.366Z,51.80
2023-03-15T16:09:14.039Z,55.10
2023-03-15T16:11:51.057Z,54.33
2023-03-15T16:14:32.119Z,56.37
2023-03-15T16:17:12.478Z,57.50
2023-03-15T16:20:04.065Z,55.80
2023-03-15T16:22:42.714Z,55.47
2023-03-15T16:25:35.820Z,57.77
2023-03-15T16:28:19.960Z,54.30
2023-03-15T16:30:56.511Z,55.20
2023-03-15T16:33:38.506Z,57.23
2023-03-15T16:36:32.771Z,56.40
2023-03-15T16:39:21.582Z,55.80
2023-03-15T16:42:37.931Z,54.17
2023-03-15T16:45:23.572Z,56.63
2023-03-15T16:48:04.860Z,54.93
2023-03-15T16:50:46.744Z,54.47
2023-03-15T16:53:26.715Z,50.43
2023-03-15T16:56:06.744Z,52.53
2023-03-15T16:58:50.944Z,50.90
2023-03-15T17:01:35.328Z,51.73
2023-03-15T17:04:12.278Z,51.77
2023-03-15T17:09:30.431Z,53.90
2023-03-15T17:12:08.495Z,50.57
2023-03-15T17:14:48.075Z,51.53
2023-03-15T17:17:24.615Z,50.73
2023-03-15T17:20:01.421Z,51.57
2023-03-15T17:22:38.469Z,51.17
2023-03-15T17:25:15.119Z,51.07
2023-03-15T17:27:55.155Z,53.87
2023-03-15T17:30:37.604Z,52.10
2023-03-15T17:33:15.855Z,52.33
2023-03-15T17:35:58.899Z,57.80
2023-03-15T17:38:42.617Z,53.33
2023-03-15T17:41:25.576Z,53.50
2023-03-15T17:44:05.137Z,50.47
2023-03-15T17:46:49.066Z,51.27
2023-03-15T17:49:27.383Z,50.97
2023-03-15T17:52:03.725Z,51.10
2023-03-15T17:54:40.025Z,51.67
2023-03-15T17:57:19.672Z,50.47
2023-03-15T17:59:55.275Z,51.43
2023-03-15T18:02:34.524Z,54.57
2023-03-15T18:05:19.009Z,51.87
2023-03-15T18:08:00.490Z,52.23
2023-03-15T18:10:43.202Z,51.23
2023-03-15T18:13:22.730Z,52.17
2023-03-15T18:15:58.827Z,50.13
2023-03-15T18:18:37.348Z,51.30
2023-03-15T18:21:19.746Z,51.73
2023-03-15T18:23:56.132Z,53.37
2023-03-15T18:26:31.854Z,53.97
2023-03-15T18:29:08.327Z,54.93
2023-03-15T18:31:44.972Z,55.50
2023-03-15T18:34:23.717Z,54.63
2023-03-15T18:37:00.146Z,53.80
2023-03-15T18:39:35.856Z,57.07
2023-03-15T18:42:11.701Z,55.10
2023-03-15T18:44:47.916Z,56.20
2023-03-15T18:47:23.120Z,56.83
2023-03-15T18:50:10.044Z,56.77
2023-03-15T18:52:47.846Z,54.47
2023-03-15T18:55:24.849Z,52.80
2023-03-15T18:58:01.902Z,55.63
2023-03-15T19:00:39.712Z,56.47
2023-03-15T19:03:16.414Z,60.70
2023-03-15T19:05:53.701Z,59.13
2023-03-15T19:08:29.010Z,60.83
2023-03-15T19:11:07.608Z,61.93
2023-03-15T19:13:42.770Z,63.03
2023-03-15T19:16:17.851Z,63.37
2023-03-15T19:18:53.664Z,59.93
2023-03-15T19:21:31.166Z,62.20
2023-03-15T19:24:06.295Z,62.27
2023-03-15T19:26:42.302Z,63.30
2023-03-15T19:29:17.902Z,65.47
2023-03-15T19:31:55.333Z,63.63
2023-03-15T19:34:31.178Z,65.07
2023-03-15T19:37:08.953Z,63.63
2023-03-15T19:39:43.867Z,62.77
2023-03-15T19:42:19.811Z,63.97
2023-03-15T19:44:53.839Z,63.50
2023-03-15T19:47:29.355Z,62.77
2023-03-15T19:50:04.999Z,64.93
2023-03-15T19:52:47.754Z,65.57
2023-03-15T19:55:30.385Z,62.43
2023-03-15T19:58:07.124Z,62.60
2023-03-15T20:00:42.170Z,56.70
2023-03-15T20:03:16.537Z,56.17
2023-03-15T20:05:50.450Z,56.80
2023-03-15T20:08:27.844Z,52.67
2023-03-15T20:11:08.282Z,53.10
2023-03-15T20:13:43.958Z,53.20
2023-03-15T20:16:18.776Z,52.17
2023-03-15T20:18:56.739Z,51.53
2023-03-15T20:21:30.891Z,46.63
2023-03-15T20:24:08.116Z,51.70
2023-03-15T20:26:42.950Z,49.23
2023-03-15T20:29:17.490Z,53.10
2023-03-15T20:31:52.284Z,53.27
2023-03-15T20:34:27.372Z,52.83
2023-03-15T20:37:01.931Z,49.30
2023-03-15T20:39:38.862Z,51.87
2023-03-15T20:42:13.006Z,49.37
2023-03-15T20:44:48.013Z,48.83
2023-03-15T20:47:22.774Z,48.10
2023-03-15T20:49:57.307Z,48.67
2023-03-15T20:52:33.866Z,45.70
2023-03-15T20:55:10.728Z,44.87
2023-03-15T20:57:44.889Z,44.60
2023-03-15T21:00:21.447Z,44.43
2023-03-15T21:02:56.982Z,44.73
2023-03-15T21:05:33.387Z,43.73
2023-03-15T21:08:07.873Z,42.23
2023-03-15T21:10:44.458Z,42.07
2023-03-15T21:13:18.900Z,40.77
2023-03-15T21:15:52.538Z,41.57
2023-03-15T21:18:27.470Z,38.63
2023-03-15T21:21:03.768Z,41.67
2023-03-15T21:23:39.057Z,40.47
2023-03-15T21:26:17.102Z,38.80
2023-03-15T21:28:52.411Z,40.17
2023-03-15T21:31:27.320Z,42.20
2023-03-15T21:34:01.650Z,40.40
2023-03-15T21:36:35.688Z,40.97
2023-03-15T21:39:10.631Z,41.47
2023-03-15T21:41:47.010Z,40.20
2023-03-15T21:44:22.466Z,40.87
2023-03-15T21:46:56.478Z,40.77
2023-03-15T21:49:31.101Z,41.37
2023-03-15T21:52:06.212Z,40.83
2023-03-15T21:54:41.188Z,41.50
2023-03-15T21:57:19.005Z,40.67
2023-03-15T21:59:54.037Z,39.57
2023-03-15T22:02:29.180Z,40.83
2023-03-15T22:05:04.681Z,40.07
2023-03-15T22:07:39.284Z,39.37
2023-03-15T22:10:16.427Z,39.23
2023-03-15T22:12:55.309Z,39.57
2023-03-15T22:15:29.975Z,37.40
2023-03-15T22:18:05.730Z,38.70
2023-03-15T22:20:40.006Z,37.50
2023-03-15T22:23:14.169Z,38.30
2023-03-15T22:25:48.825Z,37.83
2023-03-15T22:28:26.352Z,36.77
2023-03-15T22:31:01.236Z,36.83
2023-03-15T22:33:36.863Z,36.23
2023-03-15T22:36:12.457Z,35.43
2023-03-15T22:38:51.497Z,34.87
2023-03-15T22:41:27.112Z,37.50
2023-03-15T22:44:04.161Z,35.83
2023-03-15T22:46:40.030Z,35.00
2023-03-15T22:49:15.606Z,36.00
2023-03-15T22:51:50.891Z,36.13
2023-03-15T22:54:26.888Z,35.17
2023-03-15T22:57:02.973Z,32.90
2023-03-15T22:59:40.867Z,30.47
2023-03-15T23:02:16.890Z,29.70
2023-03-15T23:04:53.109Z,26.27
2023-03-15T23:07:29.087Z,27.73
2023-03-15T23:10:04.860Z,25.77
2023-03-15T23:12:40.981Z,26.53
2023-03-15T23:15:20.131Z,24.63
2023-03-15T23:17:57.190Z,25.20
2023-03-15T23:20:45.450Z,23.47
2023-03-15T23:23:49.877Z,23.70
2023-03-15T23:26:27.158Z,24.10
2023-03-15T23:29:00.970Z,23.37
2023-03-15T23:31:36.840Z,22.17
2023-03-15T23:34:11.074Z,22.13
2023-03-15T23:36:45.510Z,20.10
2023-03-15T23:39:20.258Z,20.43
2023-03-15T23:41:59.422Z,18.50
2023-03-15T23:44:35.449Z,15.53
2023-03-15T23:47:13.716Z,15.73
2023-03-15T23:49:49.323Z,15.10
2023-03-15T23:52:25.852Z,14.57
2023-03-15T23:55:01.621Z,11.13
2023-03-15T23:57:37.676Z,11.23
